createdAt,value
2022-11-04T00:02:44.799Z,13.19
2022-11-04T00:05:32.403Z,13.17
2022-11-04T00:08:26.124Z,13.17
2022-11-04T00:11:33.937Z,13.17
2022-11-04T00:14:23.590Z,13.16
2022-11-04T00:17:22.699Z,13.14
2022-11-04T00:20:36.545Z,13.14
2022-11-04T00:23:41.259Z,13.13
2022-11-04T00:26:46.510Z,13.12
2022-11-04T00:29:35.442Z,13.09
2022-11-04T00:32:40.398Z,13.08
2022-11-04T00:35:28.006Z,13.07
2022-11-04T00:38:15.309Z,13.06
2022-11-04T00:41:03.068Z,13.06
2022-11-04T00:43:50.616Z,13.06
2022-11-04T00:46:39.467Z,13.06
2022-11-04T00:49:26.854Z,13.05
2022-11-04T00:52:14.630Z,13.05
2022-11-04T00:55:02.464Z,13.04
2022-11-04T00:57:49.962Z,13.04
2022-11-04T01:00:39.192Z,13.04
2022-11-04T01:03:30.979Z,13.04
2022-11-04T01:06:19.641Z,13.03
2022-11-04T01:09:10.057Z,13.04
2022-11-04T01:11:57.444Z,13.03
2022-11-04T01:14:45.573Z,13.03
2022-11-04T01:17:33.079Z,13.03
2022-11-04T01:20:22.125Z,13.01
2022-11-04T01:23:09.509Z,13.02
2022-11-04T01:25:57.170Z,13.01
2022-11-04T01:28:45.430Z,13.00
2022-11-04T01:31:33.447Z,12.98
2022-11-04T01:34:21.616Z,12.99
2022-11-04T01:37:10.653Z,12.99
2022-11-04T01:39:58.259Z,12.98
2022-11-04T01:42:45.897Z,12.95
2022-11-04T01:45:33.931Z,12.96
2022-11-04T01:48:26.656Z,12.95
2022-11-04T01:51:16.202Z,12.93
2022-11-04T01:54:07.935Z,12.93
2022-11-04T01:56:57.534Z,12.93
2022-11-04T01:59:45.325Z,12.91
2022-11-04T02:02:33.403Z,12.91
2022-11-04T02:05:21.128Z,12.89
2022-11-04T02:08:10.542Z,12.90
2022-11-04T02:11:01.832Z,12.88
2022-11-04T02:13:48.491Z,12.90
2022-11-04T02:16:44.300Z,12.88
2022-11-04T02:20:00.876Z,12.88
2022-11-04T02:23:32.814Z,12.88
2022-11-04T02:26:56.683Z,12.87
2022-11-04T02:30:08.966Z,12.85
2022-11-04T02:33:22.373Z,12.84
2022-11-04T02:36:21.964Z,12.84
2022-11-04T02:39:21.653Z,12.84
2022-11-04T02:42:18.857Z,12.83
2022-11-04T02:45:18.131Z,12.83
2022-11-04T02:48:12.471Z,12.82
2022-11-04T02:51:08.509Z,12.83
2022-11-04T02:54:07.166Z,12.82
2022-11-04T02:57:00.100Z,12.81
2022-11-04T02:59:54.006Z,12.82
2022-11-04T03:02:46.735Z,12.81
2022-11-04T03:05:37.509Z,12.81
2022-11-04T03:08:30.191Z,12.79
2022-11-04T03:11:21.541Z,12.80
2022-11-04T03:14:17.292Z,12.80
2022-11-04T03:17:10.493Z,12.80
2022-11-04T03:20:02.674Z,12.81
2022-11-04T03:22:50.687Z,12.81
2022-11-04T03:25:43.026Z,12.80
2022-11-04T03:28:42.034Z,12.82
2022-11-04T03:31:41.609Z,12.83
2022-11-04T03:34:29.301Z,12.84
2022-11-04T03:37:18.375Z,12.84
2022-11-04T03:40:08.047Z,12.85
2022-11-04T03:43:01.609Z,12.86
2022-11-04T03:45:50.329Z,12.87
2022-11-04T03:48:38.041Z,12.85
2022-11-04T03:51:25.584Z,12.89
2022-11-04T03:54:15.963Z,12.89
2022-11-04T03:57:23.981Z,12.90
2022-11-04T04:00:14.432Z,12.89
2022-11-04T04:03:08.672Z,12.89
2022-11-04T04:06:01.964Z,12.88
2022-11-04T04:08:55.379Z,12.85
2022-11-04T04:11:52.040Z,12.88
2022-11-04T04:14:46.426Z,12.86
2022-11-04T04:17:43.673Z,12.86
2022-11-04T04:20:35.273Z,12.84
2022-11-04T04:23:46.780Z,12.81
2022-11-04T04:27:09.103Z,12.81
2022-11-04T04:29:59.044Z,12.80
2022-11-04T04:32:49.818Z,12.78
2022-11-04T04:35:44.825Z,12.78
2022-11-04T04:38:57.958Z,12.76
2022-11-04T04:42:02.630Z,12.75
2022-11-04T04:45:03.475Z,12.75
2022-11-04T04:47:53.029Z,12.74
2022-11-04T04:50:45.103Z,12.74
2022-11-04T04:53:32.633Z,12.74
2022-11-04T04:56:23.491Z,12.75
2022-11-04T04:59:11.044Z,12.75
2022-11-04T05:01:58.838Z,12.76
2022-11-04T05:04:47.938Z,12.76
2022-11-04T05:07:37.582Z,12.75
2022-11-04T05:10:24.797Z,12.74
2022-11-04T05:13:30.340Z,12.76
2022-11-04T05:16:18.515Z,12.75
2022-11-04T05:19:06.767Z,12.76
2022-11-04T05:21:55.893Z,12.77
2022-11-04T05:24:43.277Z,12.76
2022-11-04T05:27:31.213Z,12.77
2022-11-04T05:30:19.220Z,12.76
2022-11-04T05:33:07.928Z,12.75
2022-11-04T05:35:55.708Z,12.75
2022-11-04T05:38:45.424Z,12.76
2022-11-04T05:41:33.185Z,12.75
2022-11-04T05:44:20.569Z,12.75
2022-11-04T05:47:08.289Z,12.75
2022-11-04T05:49:55.661Z,12.75
2022-11-04T05:52:46.085Z,12.74
2022-11-04T05:55:35.040Z,12.75
2022-11-04T05:58:22.658Z,12.75
2022-11-04T06:01:27.877Z,12.73
2022-11-04T06:04:18.800Z,12.73
2022-11-04T06:07:06.460Z,12.74
2022-11-04T06:09:54.428Z,12.73
2022-11-04T06:12:43.476Z,12.73
2022-11-04T06:15:31.265Z,12.72
2022-11-04T06:18:19.572Z,12.73
2022-11-04T06:21:22.288Z,12.74
2022-11-04T06:24:10.812Z,12.75
2022-11-04T06:26:58.491Z,12.78
2022-11-04T06:29:48.996Z,12.78
2022-11-04T06:32:36.640Z,12.81
2022-11-04T06:35:24.545Z,12.81
2022-11-04T06:38:12.191Z,12.83
2022-11-04T06:41:00.460Z,12.87
2022-11-04T06:43:48.067Z,12.88
2022-11-04T06:46:40.563Z,12.90
2022-11-04T06:49:28.629Z,12.95
2022-11-04T06:52:16.367Z,12.99
2022-11-04T06:55:08.222Z,13.02
2022-11-04T06:57:55.850Z,13.05
2022-11-04T07:00:43.261Z,13.08
2022-11-04T07:03:32.962Z,13.12
2022-11-04T07:06:22.001Z,13.15
2022-11-04T07:09:12.182Z,13.21
2022-11-04T07:11:59.975Z,13.25
2022-11-04T07:14:48.454Z,13.27
2022-11-04T07:17:36.247Z,13.30
2022-11-04T07:20:29.092Z,13.37
2022-11-04T07:23:27.520Z,13.39
2022-11-04T07:26:15.527Z,13.44
2022-11-04T07:29:03.087Z,13.47
2022-11-04T07:31:50.778Z,13.50
2022-11-04T07:34:38.300Z,13.51
2022-11-04T07:37:29.066Z,13.55
2022-11-04T07:40:16.754Z,13.58
2022-11-04T07:43:04.615Z,13.61
2022-11-04T07:46:09.026Z,13.64
2022-11-04T07:48:59.319Z,13.65
2022-11-04T07:51:48.761Z,13.66
2022-11-04T07:54:38.752Z,13.69
2022-11-04T07:57:26.611Z,13.72
2022-11-04T08:00:16.659Z,13.75
2022-11-04T08:03:04.503Z,13.78
2022-11-04T08:05:57.863Z,13.81
2022-11-04T08:08:46.064Z,13.82
2022-11-04T08:11:35.186Z,13.87
2022-11-04T08:14:23.216Z,13.86
2022-11-04T08:17:11.322Z,13.90
2022-11-04T08:19:58.683Z,13.90
2022-11-04T08:22:46.396Z,13.93
2022-11-04T08:25:34.469Z,13.92
2022-11-04T08:28:24.731Z,13.94
2022-11-04T08:31:16.377Z,13.95
2022-11-04T08:34:08.705Z,13.96
2022-11-04T08:36:57.677Z,13.95
2022-11-04T08:39:45.341Z,13.97
2022-11-04T08:42:34.214Z,13.98
2022-11-04T08:45:23.351Z,14.00
2022-11-04T08:48:11.456Z,14.02
2022-11-04T08:51:03.153Z,14.03
2022-11-04T08:53:53.819Z,14.06
2022-11-04T08:56:41.861Z,14.09
2022-11-04T08:59:30.582Z,14.13
2022-11-04T09:02:22.935Z,14.19
2022-11-04T09:05:13.840Z,14.22
2022-11-04T09:08:02.359Z,14.29
2022-11-04T09:10:53.003Z,14.35
2022-11-04T09:13:41.079Z,14.41
2022-11-04T09:16:29.712Z,14.47
2022-11-04T09:19:19.138Z,14.55
2022-11-04T09:22:06.643Z,14.62
2022-11-04T09:24:54.652Z,14.71
2022-11-04T09:27:43.735Z,14.78
2022-11-04T09:30:31.443Z,14.92
2022-11-04T09:33:19.428Z,15.04
2022-11-04T09:36:13.111Z,15.15
2022-11-04T09:39:01.127Z,15.26
2022-11-04T09:42:18.871Z,15.35
2022-11-04T09:45:21.768Z,15.41
2022-11-04T09:48:26.656Z,15.48
2022-11-04T09:51:39.617Z,15.56
2022-11-04T09:54:31.509Z,15.62
2022-11-04T09:57:21.702Z,15.67
2022-11-04T10:00:17.776Z,15.72
2022-11-04T10:03:24.753Z,15.77
2022-11-04T10:06:38.444Z,15.79
2022-11-04T10:09:47.884Z,15.81
2022-11-04T10:13:10.226Z,15.80
2022-11-04T10:16:33.739Z,15.79
2022-11-04T10:19:42.273Z,15.78
2022-11-04T10:22:37.570Z,15.78
2022-11-04T10:25:32.175Z,15.73
2022-11-04T10:28:23.756Z,15.79
2022-11-04T10:31:16.928Z,15.77
2022-11-04T10:34:10.307Z,15.77
2022-11-04T10:36:59.576Z,15.76
2022-11-04T10:39:49.651Z,15.74
2022-11-04T10:42:37.851Z,15.71
2022-11-04T10:45:35.814Z,15.71
2022-11-04T10:48:32.637Z,15.68
2022-11-04T10:51:22.329Z,15.67
2022-11-04T10:54:11.547Z,15.66
2022-11-04T10:57:01.418Z,15.63
2022-11-04T10:59:55.702Z,15.62
2022-11-04T11:02:49.512Z,15.62
2022-11-04T11:05:41.085Z,15.61
2022-11-04T11:08:37.684Z,15.59
2022-11-04T11:11:45.584Z,15.59
2022-11-04T11:14:38.799Z,15.56
2022-11-04T11:17:37.580Z,15.57
2022-11-04T11:20:28.957Z,15.59
2022-11-04T11:23:39.469Z,15.64
2022-11-04T11:26:32.989Z,15.71
2022-11-04T11:29:28.101Z,15.78
2022-11-04T11:32:32.905Z,15.83
2022-11-04T11:35:23.527Z,15.88
2022-11-04T11:38:24.465Z,15.97
2022-11-04T11:41:24.916Z,16.06
2022-11-04T11:44:25.971Z,16.13
2022-11-04T11:47:24.722Z,16.18
2022-11-04T11:50:20.751Z,16.20
2022-11-04T11:53:18.086Z,16.25
2022-11-04T11:56:17.359Z,16.27
2022-11-04T12:02:42.773Z,16.27
2022-11-04T12:12:23.986Z,16.26
2022-11-04T12:15:34.125Z,16.25
2022-11-04T12:18:50.502Z,16.25
2022-11-04T12:21:42.665Z,16.27
2022-11-04T12:24:42.522Z,16.26
2022-11-04T12:27:39.743Z,16.25
2022-11-04T12:30:35.332Z,16.23
2022-11-04T12:33:39.443Z,16.22
2022-11-04T12:36:43.583Z,16.18
2022-11-04T12:39:50.523Z,16.15
2022-11-04T12:42:52.978Z,16.11
2022-11-04T12:46:05.921Z,16.09
2022-11-04T12:49:37.759Z,16.05
2022-11-04T12:52:49.085Z,16.03
2022-11-04T12:55:48.154Z,16.02
2022-11-04T12:59:09.862Z,16.00
2022-11-04T13:02:04.511Z,15.97
2022-11-04T13:05:03.477Z,15.92
2022-11-04T13:07:59.214Z,15.90
2022-11-04T13:10:54.187Z,15.88
2022-11-04T13:13:42.358Z,15.86
2022-11-04T13:16:31.859Z,15.85
2022-11-04T13:19:29.164Z,15.83
2022-11-04T13:22:23.790Z,15.81
2022-11-04T13:25:21.218Z,15.77
2022-11-04T13:28:14.499Z,15.75
2022-11-04T13:31:09.647Z,15.74
2022-11-04T13:34:03.204Z,15.73
2022-11-04T13:36:59.838Z,15.64
2022-11-04T13:39:54.830Z,15.66
2022-11-04T13:43:30.278Z,15.65
2022-11-04T13:46:30.074Z,15.63
2022-11-04T13:49:30.718Z,15.60
2022-11-04T13:52:19.555Z,15.59
2022-11-04T13:55:21.684Z,15.56
2022-11-04T13:58:19.092Z,15.54
2022-11-04T14:01:27.846Z,15.51
2022-11-04T14:04:31.920Z,15.49
2022-11-04T14:07:19.784Z,15.46
2022-11-04T14:11:06.759Z,15.45
2022-11-04T14:14:20.499Z,15.39
2022-11-04T14:18:01.947Z,15.38
2022-11-04T14:21:08.483Z,15.35
2022-11-04T14:24:00.413Z,15.34
2022-11-04T14:26:52.836Z,15.33
2022-11-04T14:29:41.035Z,15.31
2022-11-04T14:32:37.219Z,15.29
2022-11-04T14:35:29.453Z,15.28
2022-11-04T14:38:31.472Z,15.27
2022-11-04T14:41:31.259Z,15.25
2022-11-04T14:44:30.933Z,15.24
2022-11-04T14:47:22.767Z,15.25
2022-11-04T14:50:22.593Z,15.23
2022-11-04T14:53:18.112Z,15.21
2022-11-04T14:56:23.900Z,15.18
2022-11-04T14:59:24.652Z,15.19
2022-11-04T15:02:35.929Z,15.17
2022-11-04T15:05:28.514Z,15.15
2022-11-04T15:08:32.484Z,15.15
2022-11-04T15:11:53.092Z,15.14
2022-11-04T15:14:42.183Z,15.13
2022-11-04T15:17:34.687Z,15.12
2022-11-04T15:20:29.677Z,15.11
2022-11-04T15:23:25.034Z,15.09
2022-11-04T15:26:29.357Z,15.09
2022-11-04T15:29:19.015Z,15.07
2022-11-04T15:32:08.425Z,15.06
2022-11-04T15:34:57.157Z,15.06
2022-11-04T15:37:46.131Z,15.04
2022-11-04T15:40:36.115Z,15.02
2022-11-04T15:43:24.598Z,15.02
2022-11-04T15:46:20.093Z,15.00
2022-11-04T15:49:26.306Z,14.98
2022-11-04T15:52:18.717Z,14.97
2022-11-04T15:55:07.641Z,14.94
2022-11-04T15:57:57.682Z,14.94
2022-11-04T16:00:54.333Z,14.91
2022-11-04T16:03:42.517Z,14.84
2022-11-04T16:06:40.979Z,14.86
2022-11-04T16:09:29.544Z,14.83
2022-11-04T16:12:27.084Z,14.79
2022-11-04T16:15:34.385Z,14.77
2022-11-04T16:18:27.858Z,14.75
2022-11-04T16:21:24.048Z,14.75
2022-11-04T16:24:23.329Z,14.73
2022-11-04T16:27:14.018Z,14.71
2022-11-04T16:30:10.806Z,14.69
2022-11-04T16:33:12.263Z,14.66
2022-11-04T16:36:00.074Z,14.66
2022-11-04T16:38:53.361Z,14.64
2022-11-04T16:41:43.053Z,14.63
2022-11-04T16:44:31.120Z,14.63
2022-11-04T16:47:20.090Z,14.63
2022-11-04T16:50:16.550Z,14.58
2022-11-04T16:53:04.568Z,14.60
2022-11-04T16:55:53.007Z,14.59
2022-11-04T16:58:42.202Z,14.58
2022-11-04T17:01:33.095Z,14.56
2022-11-04T17:04:20.847Z,14.55
2022-11-04T17:07:10.289Z,14.56
2022-11-04T17:09:57.642Z,14.53
2022-11-04T17:12:45.516Z,14.53
2022-11-04T17:15:34.823Z,14.52
2022-11-04T17:18:22.339Z,14.52
2022-11-04T17:21:14.672Z,14.49
2022-11-04T17:24:02.262Z,14.48
2022-11-04T17:26:50.147Z,14.49
2022-11-04T17:29:37.651Z,14.49
2022-11-04T17:32:26.742Z,14.48
2022-11-04T17:35:17.744Z,14.46
2022-11-04T17:38:08.516Z,14.44
2022-11-04T17:41:13.994Z,14.43
2022-11-04T17:44:01.535Z,14.38
2022-11-04T17:46:52.837Z,14.37
2022-11-04T17:49:42.211Z,14.37
2022-11-04T17:52:29.904Z,14.32
2022-11-04T17:55:21.876Z,14.33
2022-11-04T17:58:12.312Z,14.33
2022-11-04T18:01:05.664Z,14.31
2022-11-04T18:03:54.671Z,14.29
2022-11-04T18:06:43.597Z,14.30
2022-11-04T18:09:31.184Z,14.28
2022-11-04T18:12:35.768Z,14.24
2022-11-04T18:15:23.619Z,14.25
2022-11-04T18:18:11.243Z,14.23
2022-11-04T18:21:06.567Z,14.22
2022-11-04T18:23:58.518Z,14.21
2022-11-04T18:26:49.215Z,14.20
2022-11-04T18:29:36.589Z,14.17
2022-11-04T18:32:24.333Z,14.16
2022-11-04T18:35:11.952Z,14.17
2022-11-04T18:37:59.568Z,14.15
2022-11-04T18:40:48.751Z,14.15
2022-11-04T18:43:36.662Z,14.14
2022-11-04T18:46:23.970Z,14.13
2022-11-04T18:49:11.760Z,14.10
2022-11-04T18:52:00.361Z,14.11
2022-11-04T18:54:48.136Z,14.09
2022-11-04T18:57:37.539Z,14.07
2022-11-04T19:00:25.794Z,14.08
2022-11-04T19:03:13.140Z,14.06
2022-11-04T19:06:00.801Z,14.07
2022-11-04T19:08:50.635Z,14.04
2022-11-04T19:11:41.329Z,14.04
2022-11-04T19:14:30.564Z,14.04
2022-11-04T19:17:18.143Z,14.04
2022-11-04T19:20:11.738Z,14.03
2022-11-04T19:23:00.074Z,14.04
2022-11-04T19:25:47.830Z,14.04
2022-11-04T19:28:47.680Z,14.02
2022-11-04T19:31:38.815Z,14.02
2022-11-04T19:34:26.252Z,14.02
2022-11-04T19:37:14.404Z,14.02
2022-11-04T19:40:01.884Z,14.03
2022-11-04T19:43:07.312Z,14.04
2022-11-04T19:45:56.084Z,14.03
2022-11-04T19:48:47.968Z,14.01
2022-11-04T19:51:36.386Z,14.02
2022-11-04T19:54:23.986Z,14.02
2022-11-04T19:57:11.795Z,14.01
2022-11-04T19:59:59.442Z,14.00
2022-11-04T20:02:46.999Z,14.01
2022-11-04T20:05:40.395Z,14.00
2022-11-04T20:08:28.127Z,13.99
2022-11-04T20:11:16.687Z,13.99
2022-11-04T20:14:07.856Z,13.98
2022-11-04T20:16:56.202Z,13.97
2022-11-04T20:19:50.098Z,13.98
2022-11-04T20:22:39.170Z,13.97
2022-11-04T20:25:26.449Z,13.97
2022-11-04T20:28:14.297Z,13.96
2022-11-04T20:31:02.048Z,13.97
2022-11-04T20:33:50.926Z,13.97
2022-11-04T20:36:40.191Z,13.96
2022-11-04T20:39:29.205Z,13.97
2022-11-04T20:42:16.619Z,13.95
2022-11-04T20:45:04.706Z,13.95
2022-11-04T20:47:53.896Z,13.96
2022-11-04T20:50:41.647Z,13.96
2022-11-04T20:53:30.830Z,13.95
2022-11-04T20:56:20.831Z,13.97
2022-11-04T20:59:10.117Z,13.96
2022-11-04T21:01:57.945Z,13.97
2022-11-04T21:04:45.402Z,13.96
2022-11-04T21:07:33.109Z,13.96
2022-11-04T21:10:20.896Z,13.96
2022-11-04T21:13:10.147Z,13.95
2022-11-04T21:15:59.901Z,13.94
2022-11-04T21:18:48.326Z,13.94
2022-11-04T21:21:36.033Z,13.95
2022-11-04T21:24:24.223Z,13.95
2022-11-04T21:27:11.729Z,13.96
2022-11-04T21:30:01.278Z,13.97
2022-11-04T21:32:49.060Z,13.96
2022-11-04T21:35:39.118Z,13.96
2022-11-04T21:38:28.793Z,13.95
2022-11-04T21:41:25.320Z,13.96
2022-11-04T21:44:15.016Z,13.95
2022-11-04T21:47:03.783Z,13.96
2022-11-04T21:49:51.720Z,13.97
2022-11-04T21:52:39.741Z,13.97
2022-11-04T21:55:27.613Z,13.98
2022-11-04T21:58:15.738Z,13.97
2022-11-04T22:01:07.125Z,13.98
2022-11-04T22:03:59.492Z,13.97
2022-11-04T22:06:47.212Z,13.98
2022-11-04T22:09:35.394Z,13.99
2022-11-04T22:12:23.012Z,13.99
2022-11-04T22:15:11.752Z,13.99
2022-11-04T22:17:59.146Z,13.99
2022-11-04T22:20:48.136Z,13.99
2022-11-04T22:23:36.652Z,13.99
2022-11-04T22:26:27.327Z,13.98
2022-11-04T22:29:14.997Z,13.98
2022-11-04T22:32:02.559Z,13.98
2022-11-04T22:34:50.052Z,13.97
2022-11-04T22:37:39.212Z,13.98
2022-11-04T22:40:27.046Z,13.98
2022-11-04T22:43:14.421Z,13.97
2022-11-04T22:46:08.886Z,13.97
2022-11-04T22:48:56.412Z,13.96
2022-11-04T22:51:45.314Z,13.96
2022-11-04T22:54:36.956Z,13.95
2022-11-04T22:57:24.787Z,13.93
2022-11-04T23:00:14.190Z,13.93
2022-11-04T23:03:01.822Z,13.91
2022-11-04T23:05:49.303Z,13.91
2022-11-04T23:08:38.820Z,13.91
2022-11-04T23:11:46.994Z,13.88
2022-11-04T23:14:54.468Z,13.86
2022-11-04T23:17:59.446Z,13.86
2022-11-04T23:21:07.093Z,13.85
2022-11-04T23:24:12.161Z,13.83
2022-11-04T23:27:01.233Z,13.82
2022-11-04T23:30:06.213Z,13.80
2022-11-04T23:32:54.885Z,13.78
2022-11-04T23:36:05.698Z,13.76
2022-11-04T23:38:53.298Z,13.74
2022-11-04T23:42:01.546Z,13.73
2022-11-04T23:45:12.906Z,13.73
2022-11-04T23:48:19.113Z,13.72
2022-11-04T23:51:24.432Z,13.70
2022-11-04T23:54:30.058Z,13.70
2022-11-04T23:57:37.186Z,13.68
